createdAt,value
2018-08-25T11:33:38.887Z,16.89
2018-08-25T11:34:38.848Z,16.88
2018-08-25T11:35:38.845Z,16.92
2018-08-25T11:36:38.880Z,16.95
2018-08-25T11:37:38.942Z,16.86
2018-08-25T11:38:38.849Z,16.81
2018-08-25T11:39:38.847Z,16.83
2018-08-25T11:40:38.883Z,16.99
2018-08-25T11:41:38.848Z,17.20
2018-08-25T11:42:38.852Z,17.04
2018-08-25T11:43:38.868Z,16.92
2018-08-25T11:44:38.858Z,17.15
2018-08-25T11:45:38.894Z,17.32
2018-08-25T11:46:38.859Z,17.14
2018-08-25T11:47:38.863Z,16.85
2018-08-25T11:48:38.863Z,16.56
2018-08-25T11:49:38.864Z,16.63
2018-08-25T11:50:38.863Z,16.81
2018-08-25T11:51:38.907Z,16.70
2018-08-25T11:52:38.872Z,16.65
2018-08-25T11:53:39.011Z,16.52
2018-08-25T11:54:38.877Z,16.45
2018-08-25T11:55:38.884Z,16.65
2018-08-25T11:56:38.914Z,16.89
2018-08-25T11:57:38.887Z,16.92
2018-08-25T11:58:38.883Z,17.03
2018-08-25T11:59:38.890Z,17.04
2018-08-25T12:00:38.889Z,17.26
2018-08-25T12:01:39.796Z,17.33
2018-08-25T12:02:38.897Z,17.43
2018-08-25T12:03:38.912Z,17.57
2018-08-25T12:04:38.904Z,17.43
2018-08-25T12:05:38.902Z,17.30
2018-08-25T12:06:38.947Z,17.30
2018-08-25T12:07:38.911Z,17.35
2018-08-25T12:08:38.908Z,17.47
2018-08-25T12:09:38.968Z,17.59
2018-08-25T12:10:38.952Z,17.64
2018-08-25T12:11:38.920Z,17.66
2018-08-25T12:12:38.926Z,17.81
2018-08-25T12:13:40.512Z,17.70
2018-08-25T12:14:38.924Z,17.66
2018-08-25T12:15:38.967Z,17.41
2018-08-25T12:16:38.972Z,17.26
2018-08-25T12:17:38.935Z,17.30
2018-08-25T12:18:38.940Z,17.47
2018-08-25T12:19:38.944Z,17.38
2018-08-25T12:20:38.944Z,17.47
2018-08-25T12:21:38.984Z,17.71
2018-08-25T12:22:38.955Z,17.70
2018-08-25T12:23:38.960Z,17.66
2018-08-25T12:24:38.957Z,17.62
2018-08-25T12:25:38.994Z,17.71
2018-08-25T12:26:38.964Z,17.66
2018-08-25T12:27:38.972Z,17.74
2018-08-25T12:28:39.005Z,17.73
2018-08-25T12:29:38.973Z,17.62
2018-08-25T12:30:39.094Z,17.66
2018-08-25T12:31:39.022Z,17.88
2018-08-25T12:32:38.981Z,17.55
2018-08-25T12:33:39.067Z,17.59
2018-08-25T12:34:38.997Z,17.59
2018-08-25T12:35:39.024Z,17.53
2018-08-25T12:36:38.994Z,17.59
2018-08-25T12:37:38.996Z,17.64
2018-08-25T12:38:39.006Z,17.82
2018-08-25T12:39:39.045Z,18.06
2018-08-25T12:40:39.043Z,18.12
2018-08-25T12:41:39.020Z,18.24
2018-08-25T12:42:39.026Z,18.25
2018-08-25T12:43:39.039Z,18.33
2018-08-25T12:44:39.023Z,18.42
2018-08-25T12:45:39.074Z,18.15
2018-08-25T12:46:39.028Z,17.92
2018-08-25T12:47:39.035Z,17.95
2018-08-25T12:48:39.076Z,18.13
2018-08-25T12:49:39.041Z,18.21
2018-08-25T12:50:39.080Z,18.18
2018-08-25T12:51:39.098Z,18.06
2018-08-25T12:52:39.053Z,17.88
2018-08-25T12:53:39.053Z,17.79
2018-08-25T12:54:39.057Z,17.84
2018-08-25T12:55:39.093Z,18.00
2018-08-25T12:56:39.061Z,18.10
2018-08-25T12:57:39.069Z,18.29
2018-08-25T12:58:39.076Z,18.34
2018-08-25T12:59:39.071Z,18.44
2018-08-25T13:00:39.111Z,18.42
2018-08-25T13:01:39.115Z,18.58
2018-08-25T13:02:39.078Z,18.64
2018-08-25T13:03:39.089Z,18.50
2018-08-25T13:04:39.090Z,18.50
2018-08-25T13:05:39.131Z,18.42
2018-08-25T13:06:39.099Z,18.54
2018-08-25T13:07:39.103Z,18.77
2018-08-25T13:08:39.103Z,18.84
2018-08-25T13:09:39.107Z,18.94
2018-08-25T13:10:39.152Z,18.55
2018-08-25T13:11:39.112Z,18.42
2018-08-25T13:12:39.124Z,18.22
2018-08-25T13:13:39.125Z,18.15
2018-08-25T13:14:39.169Z,18.18
2018-08-25T13:15:39.169Z,18.36
2018-08-25T13:16:39.140Z,18.49
2018-08-25T13:17:39.141Z,18.59
2018-08-25T13:18:39.146Z,18.02
2018-08-25T13:19:39.184Z,17.85
2018-08-25T13:20:39.192Z,18.00
2018-08-25T13:21:39.158Z,18.07
2018-08-25T13:22:39.165Z,18.42
2018-08-25T13:23:39.169Z,18.50
2018-08-25T13:24:39.169Z,18.82
2018-08-25T13:25:39.213Z,18.92
2018-08-25T13:26:39.183Z,19.10
2018-08-25T13:27:39.187Z,19.11
2018-08-25T13:28:39.190Z,19.17
2018-08-25T13:29:39.193Z,19.32
2018-08-25T13:30:39.233Z,18.95
2018-08-25T13:31:39.199Z,18.97
2018-08-25T13:32:39.210Z,18.73
2018-08-25T13:33:39.216Z,18.84
2018-08-25T13:34:39.218Z,18.80
2018-08-25T13:35:39.255Z,18.49
2018-08-25T13:36:39.228Z,18.58
2018-08-25T13:37:39.236Z,18.95
2018-08-25T13:38:39.232Z,18.76
2018-08-25T13:39:39.278Z,18.22
2018-08-25T13:40:39.248Z,17.66
2018-08-25T13:41:39.248Z,17.84
2018-08-25T13:42:39.259Z,18.06
2018-08-25T13:43:39.260Z,18.39
2018-08-25T13:44:39.306Z,17.99
2018-08-25T13:45:39.265Z,18.22
2018-08-25T13:46:39.281Z,18.22
2018-08-25T13:47:39.283Z,18.39
2018-08-25T13:48:39.283Z,18.50
2018-08-25T13:49:39.324Z,18.55
2018-08-25T13:50:39.289Z,18.47
2018-08-25T13:51:39.303Z,18.39
2018-08-25T13:52:39.363Z,18.36
2018-08-25T13:53:39.446Z,18.34
2018-08-25T13:54:39.377Z,18.12
2018-08-25T13:55:39.321Z,18.02
2018-08-25T13:56:39.339Z,18.03
2018-08-25T13:57:39.318Z,17.94
2018-08-25T13:58:39.325Z,17.85
2018-08-25T13:59:39.363Z,17.94
2018-08-25T14:00:39.362Z,17.94
2018-08-25T14:01:39.330Z,17.67
2018-08-25T14:02:39.335Z,17.69
2018-08-25T14:03:39.332Z,17.63
2018-08-25T14:04:39.343Z,17.64
2018-08-25T14:05:39.381Z,17.30
2018-08-25T14:06:39.347Z,17.25
2018-08-25T14:07:39.348Z,17.17
2018-08-25T14:08:39.346Z,17.14
2018-08-25T14:09:39.351Z,17.22
2018-08-25T14:10:39.392Z,17.20
2018-08-25T14:11:39.359Z,17.23
2018-08-25T14:12:39.361Z,17.06
2018-08-25T14:13:39.360Z,17.03
2018-08-25T14:14:39.364Z,16.59
2018-08-25T14:15:39.406Z,16.06
2018-08-25T14:16:39.371Z,15.85
2018-08-25T14:17:39.369Z,15.33
2018-08-25T14:18:39.379Z,14.87
2018-08-25T14:19:39.371Z,14.64
2018-08-25T14:20:39.406Z,14.35
2018-08-25T14:21:39.376Z,14.37
2018-08-25T14:22:39.378Z,14.47
2018-08-25T14:23:39.383Z,14.46
2018-08-25T14:24:39.410Z,14.74
2018-08-25T14:25:39.382Z,14.83
2018-08-25T14:26:39.414Z,15.06
2018-08-25T14:27:39.379Z,15.06
2018-08-25T14:28:39.429Z,15.28
2018-08-25T14:29:39.384Z,15.19
2018-08-25T14:30:39.380Z,15.05
2018-08-25T14:31:39.427Z,15.24
2018-08-25T14:32:39.389Z,15.23
2018-08-25T14:33:39.519Z,15.15
2018-08-25T14:34:39.390Z,15.19
2018-08-25T14:35:39.424Z,15.21
2018-08-25T14:36:39.389Z,15.31
2018-08-25T14:37:39.389Z,15.48
2018-08-25T14:38:39.388Z,15.30
2018-08-25T14:39:39.393Z,15.48
2018-08-25T14:40:39.424Z,15.35
2018-08-25T14:41:39.426Z,15.33
2018-08-25T14:42:39.409Z,15.49
2018-08-25T14:43:39.389Z,15.54
2018-08-25T14:44:39.393Z,15.67
2018-08-25T14:45:39.431Z,15.88
2018-08-25T14:46:39.393Z,16.30
2018-08-25T14:47:39.392Z,16.31
2018-08-25T14:48:39.391Z,16.62
2018-08-25T14:49:39.393Z,16.73
2018-08-25T14:50:39.435Z,16.75
2018-08-25T14:51:39.440Z,16.40
2018-08-25T14:52:39.419Z,16.53
2018-08-25T14:53:39.395Z,16.42
2018-08-25T14:54:39.404Z,16.71
2018-08-25T14:55:39.402Z,17.35
2018-08-25T14:56:39.439Z,17.53
2018-08-25T14:57:39.406Z,17.63
2018-08-25T14:58:39.410Z,17.63
2018-08-25T14:59:39.418Z,17.48
2018-08-25T15:00:39.411Z,17.33
2018-08-25T15:01:39.795Z,17.07
2018-08-25T15:02:39.426Z,17.32
2018-08-25T15:03:39.420Z,17.30
2018-08-25T15:04:39.426Z,17.13
2018-08-25T15:05:39.428Z,17.29
2018-08-25T15:06:39.471Z,17.50
2018-08-25T15:07:39.439Z,17.62
2018-08-25T15:08:39.432Z,17.71
2018-08-25T15:09:39.444Z,17.28
2018-08-25T15:10:39.441Z,17.38
2018-08-25T15:11:39.486Z,17.63
2018-08-25T15:12:39.449Z,17.46
2018-08-25T15:13:39.456Z,17.63
2018-08-25T15:14:39.461Z,17.95
2018-08-25T15:15:39.466Z,18.00
2018-08-25T15:16:39.507Z,17.92
2018-08-25T15:17:39.474Z,18.02
2018-08-25T15:18:39.511Z,17.95
2018-08-25T15:19:39.486Z,18.10
2018-08-25T15:20:39.485Z,18.04
2018-08-25T15:21:39.534Z,18.29
2018-08-25T15:22:39.540Z,18.54
2018-08-25T15:23:39.503Z,18.47
2018-08-25T15:24:39.503Z,18.33
2018-08-25T15:25:39.515Z,18.52
2018-08-25T15:26:39.516Z,18.50
2018-08-25T15:27:39.566Z,18.44
2018-08-25T15:28:39.531Z,18.17
2018-08-25T15:29:39.539Z,18.31
2018-08-25T15:30:39.540Z,18.43
2018-08-25T15:31:39.547Z,18.43
2018-08-25T15:32:39.583Z,18.49
2018-08-25T15:33:39.636Z,18.40
2018-08-25T15:34:39.555Z,18.29
2018-08-25T15:35:39.579Z,18.24
2018-08-25T15:36:39.622Z,18.21
2018-08-25T15:37:39.605Z,17.99
2018-08-25T15:38:39.578Z,17.84
2018-08-25T15:39:41.297Z,17.78
2018-08-25T15:40:39.614Z,17.41
2018-08-25T15:41:39.580Z,17.29
2018-08-25T15:42:39.590Z,17.32
2018-08-25T15:43:39.629Z,17.35
2018-08-25T15:44:39.600Z,17.36
2018-08-25T15:45:39.597Z,17.43
2018-08-25T15:46:39.601Z,17.54
2018-08-25T15:47:39.606Z,17.55
2018-08-25T15:48:39.642Z,17.53
2018-08-25T15:49:39.613Z,17.59
2018-08-25T15:50:39.619Z,17.46
2018-08-25T15:51:39.652Z,17.36
2018-08-25T15:52:39.658Z,17.36
2018-08-25T15:53:39.615Z,17.28
2018-08-25T15:54:39.659Z,17.20
2018-08-25T15:55:39.638Z,17.26
2018-08-25T15:56:39.627Z,17.33
2018-08-25T15:57:39.649Z,17.71
2018-08-25T15:58:39.670Z,17.84
2018-08-25T15:59:39.629Z,17.92
2018-08-25T16:00:39.632Z,17.82
2018-08-25T16:01:40.469Z,17.85
2018-08-25T16:02:39.639Z,17.81
2018-08-25T16:03:39.784Z,17.78
2018-08-25T16:04:39.647Z,17.62
2018-08-25T16:05:39.644Z,17.55
2018-08-25T16:06:39.649Z,17.51
2018-08-25T16:07:39.653Z,17.47
2018-08-25T16:08:39.690Z,17.50
2018-08-25T16:09:39.653Z,17.62
2018-08-25T16:10:39.657Z,17.59
2018-08-25T16:11:39.735Z,17.79
2018-08-25T16:12:39.661Z,18.00
2018-08-25T16:13:39.857Z,18.09
2018-08-25T16:14:39.666Z,18.00
2018-08-25T16:15:39.667Z,18.21
2018-08-25T16:16:39.710Z,18.21
2018-08-25T16:17:39.675Z,18.15
2018-08-25T16:18:39.678Z,18.02
2018-08-25T16:19:39.728Z,18.04
2018-08-25T16:20:39.684Z,17.95
2018-08-25T16:21:40.482Z,17.94
2018-08-25T16:22:39.687Z,18.00
2018-08-25T16:23:39.691Z,18.00
2018-08-25T16:24:39.726Z,18.06
2018-08-25T16:25:39.693Z,18.13
2018-08-25T16:26:39.699Z,18.13
2018-08-25T16:27:39.700Z,18.39
2018-08-25T16:28:39.707Z,18.46
2018-08-25T16:29:39.744Z,18.59
2018-08-25T16:30:39.712Z,18.57
2018-08-25T16:31:39.720Z,18.42
2018-08-25T16:32:39.717Z,18.49
2018-08-25T16:33:39.922Z,18.47
2018-08-25T16:34:39.760Z,18.36
2018-08-25T16:35:40.453Z,18.40
2018-08-25T16:36:39.731Z,18.50
2018-08-25T16:37:39.729Z,18.40
2018-08-25T16:38:39.735Z,18.42
2018-08-25T16:39:39.781Z,18.27
2018-08-25T16:40:39.741Z,18.25
2018-08-25T16:41:39.741Z,18.09
2018-08-25T16:42:39.746Z,17.94
2018-08-25T16:43:39.789Z,17.79
2018-08-25T16:44:39.755Z,17.64
2018-08-25T16:45:39.754Z,17.63
2018-08-25T16:46:39.762Z,17.46
2018-08-25T16:47:39.763Z,17.33
2018-08-25T16:48:39.806Z,17.29
2018-08-25T16:49:39.764Z,17.36
2018-08-25T16:50:39.772Z,17.11
2018-08-25T16:51:39.779Z,17.13
2018-08-25T16:52:39.775Z,17.07
2018-08-25T16:53:39.931Z,16.96
2018-08-25T16:54:39.780Z,16.90
2018-08-25T16:55:39.779Z,16.92
2018-08-25T16:56:39.785Z,16.98
2018-08-25T16:57:39.791Z,16.89
2018-08-25T16:58:39.846Z,16.89
2018-08-25T16:59:39.801Z,16.75
2018-08-25T17:00:39.800Z,16.75
2018-08-25T17:01:39.843Z,16.83
2018-08-25T17:02:39.806Z,16.75
2018-08-25T17:03:39.835Z,16.73
2018-08-25T17:04:39.801Z,16.71
2018-08-25T17:05:39.807Z,16.77
2018-08-25T17:06:39.805Z,16.77
2018-08-25T17:07:39.863Z,16.75
2018-08-25T17:08:39.825Z,16.68
2018-08-25T17:09:39.808Z,16.55
2018-08-25T17:10:39.811Z,16.49
2018-08-25T17:11:39.814Z,16.48
2018-08-25T17:12:39.850Z,16.41
2018-08-25T17:13:39.818Z,16.35
2018-08-25T17:14:39.826Z,16.33
2018-08-25T17:15:39.836Z,16.35
2018-08-25T17:16:39.820Z,16.33
2018-08-25T17:17:39.862Z,16.27
2018-08-25T17:18:39.829Z,16.23
2018-08-25T17:19:39.824Z,16.15
2018-08-25T17:20:39.831Z,16.25
2018-08-25T17:21:39.835Z,16.07
2018-08-25T17:22:39.869Z,15.97
2018-08-25T17:23:39.829Z,15.93
2018-08-25T17:24:39.829Z,15.96
2018-08-25T17:25:39.835Z,15.84
2018-08-25T17:26:39.834Z,15.72
2018-08-25T17:27:39.869Z,15.75
2018-08-25T17:28:39.844Z,15.67
2018-08-25T17:29:39.838Z,15.70
2018-08-25T17:30:39.838Z,15.63
2018-08-25T17:31:39.835Z,15.67
2018-08-25T17:32:39.886Z,15.49
2018-08-25T17:33:39.869Z,15.52
2018-08-25T17:34:39.842Z,15.42
2018-08-25T17:35:39.838Z,15.54
2018-08-25T17:36:39.843Z,15.43
2018-08-25T17:37:39.839Z,15.38
2018-08-25T17:38:39.890Z,15.46
2018-08-25T17:39:39.839Z,15.30
2018-08-25T17:40:39.842Z,15.39
2018-08-25T17:41:39.845Z,15.31
2018-08-25T17:42:39.846Z,15.27
2018-08-25T17:43:39.880Z,15.36
2018-08-25T17:44:39.844Z,15.30
2018-08-25T17:45:39.851Z,15.23
2018-08-25T17:46:39.853Z,15.15
2018-08-25T17:47:39.848Z,15.05
2018-08-25T17:48:39.888Z,14.91
2018-08-25T17:49:39.852Z,14.94
2018-08-25T17:50:39.850Z,14.80
2018-08-25T17:51:39.848Z,14.75
2018-08-25T17:52:39.848Z,14.69
2018-08-25T17:53:39.885Z,14.64
2018-08-25T17:54:39.850Z,14.52
2018-08-25T17:55:39.850Z,14.47
2018-08-25T17:56:39.868Z,14.47
2018-08-25T17:57:40.092Z,14.34
2018-08-25T17:58:40.314Z,14.35
2018-08-25T17:59:39.971Z,14.35
2018-08-25T18:00:40.162Z,14.28
2018-08-25T18:01:39.894Z,14.20
2018-08-25T18:02:40.039Z,14.21
2018-08-25T18:03:39.963Z,14.10
2018-08-25T18:04:39.855Z,14.06
2018-08-25T18:05:39.873Z,14.14
2018-08-25T18:06:39.854Z,13.96
2018-08-25T18:07:39.886Z,13.89
2018-08-25T18:08:39.847Z,13.99
2018-08-25T18:09:39.885Z,13.89
2018-08-25T18:10:39.847Z,13.84
2018-08-25T18:11:39.845Z,13.77
2018-08-25T18:12:39.843Z,13.79
2018-08-25T18:13:39.845Z,13.65
2018-08-25T18:14:39.888Z,13.62
2018-08-25T18:15:39.846Z,13.63
2018-08-25T18:16:39.847Z,13.55
2018-08-25T18:17:39.925Z,13.51
2018-08-25T18:18:39.844Z,13.43
2018-08-25T18:19:39.880Z,13.43
2018-08-25T18:20:39.849Z,13.33
2018-08-25T18:21:39.840Z,13.40
2018-08-25T18:22:39.838Z,13.33
2018-08-25T18:23:39.845Z,13.21
2018-08-25T18:24:39.882Z,13.22
2018-08-25T18:25:39.841Z,13.18
2018-08-25T18:26:39.837Z,13.22
2018-08-25T18:27:39.838Z,13.18
2018-08-25T18:28:39.842Z,13.22
2018-08-25T18:29:39.870Z,13.18
2018-08-25T18:30:39.841Z,13.15
2018-08-25T18:31:39.838Z,13.27
2018-08-25T18:32:39.834Z,13.37
2018-08-25T18:33:39.832Z,13.30
2018-08-25T18:34:39.863Z,13.32
2018-08-25T18:35:39.835Z,13.17
2018-08-25T18:36:39.837Z,13.18
2018-08-25T18:37:39.832Z,13.07
2018-08-25T18:38:39.835Z,13.02
2018-08-25T18:39:39.858Z,12.99
2018-08-25T18:40:39.829Z,12.89
2018-08-25T18:41:39.829Z,12.87
2018-08-25T18:42:39.823Z,12.81
2018-08-25T18:43:39.825Z,12.78
2018-08-25T18:44:39.877Z,12.69
2018-08-25T18:45:39.860Z,12.71
2018-08-25T18:46:39.820Z,12.67
2018-08-25T18:47:39.977Z,12.64
2018-08-25T18:48:39.845Z,12.45
2018-08-25T18:49:39.816Z,12.49
2018-08-25T18:50:39.875Z,12.37
2018-08-25T18:51:39.832Z,12.42
2018-08-25T18:52:39.837Z,12.37
2018-08-25T18:53:39.814Z,12.37
2018-08-25T18:54:39.884Z,12.56
2018-08-25T18:55:40.013Z,12.46
2018-08-25T18:56:39.812Z,12.49
2018-08-25T18:57:39.808Z,12.54
2018-08-25T18:58:39.815Z,12.57
2018-08-25T18:59:39.801Z,12.59
2018-08-25T19:00:39.798Z,12.57
2018-08-25T19:01:39.862Z,12.54
2018-08-25T19:02:39.819Z,12.70
2018-08-25T19:03:39.797Z,12.67
2018-08-25T19:04:39.802Z,12.77
2018-08-25T19:05:39.836Z,12.84
2018-08-25T19:06:39.795Z,12.78
2018-08-25T19:07:39.920Z,12.84
2018-08-25T19:08:39.839Z,12.84
2018-08-25T19:09:39.791Z,12.77
2018-08-25T19:10:39.821Z,12.78
2018-08-25T19:11:39.792Z,12.81
2018-08-25T19:12:39.787Z,12.75
2018-08-25T19:13:39.787Z,12.71
2018-08-25T19:14:39.786Z,12.67
2018-08-25T19:15:39.826Z,12.63
2018-08-25T19:16:39.779Z,12.63
2018-08-25T19:17:39.783Z,12.60
2018-08-25T19:18:39.776Z,12.59
2018-08-25T19:19:39.786Z,12.52
2018-08-25T19:20:39.809Z,12.62
2018-08-25T19:21:39.776Z,12.49
2018-08-25T19:22:39.783Z,12.57
2018-08-25T19:23:39.796Z,12.57
2018-08-25T19:24:39.774Z,12.54
2018-08-25T19:25:39.809Z,12.54
2018-08-25T19:26:39.770Z,12.51
2018-08-25T19:27:39.768Z,12.52
2018-08-25T19:28:39.758Z,12.57
2018-08-25T19:29:39.802Z,12.46
2018-08-25T19:30:39.802Z,12.49
2018-08-25T19:31:39.758Z,12.44
2018-08-25T19:32:39.756Z,12.26
2018-08-25T19:33:39.755Z,12.24
2018-08-25T19:34:39.755Z,12.19
2018-08-25T19:35:39.878Z,12.20
2018-08-25T19:36:40.516Z,12.29
2018-08-25T19:37:39.753Z,12.21
2018-08-25T19:38:39.748Z,12.19
2018-08-25T19:39:39.750Z,12.26
2018-08-25T19:40:39.783Z,12.34
2018-08-25T19:41:39.745Z,12.42
2018-08-25T19:42:39.745Z,12.41
2018-08-25T19:43:39.746Z,12.33
2018-08-25T19:44:39.777Z,12.37
2018-08-25T19:45:39.741Z,12.39
2018-08-25T19:46:39.737Z,12.39
2018-08-25T19:47:39.737Z,12.41
2018-08-25T19:48:39.733Z,12.49
2018-08-25T19:49:39.761Z,12.41
2018-08-25T19:50:39.734Z,12.41
2018-08-25T19:51:39.729Z,12.41
2018-08-25T19:52:39.726Z,12.34
2018-08-25T19:53:39.726Z,12.41
2018-08-25T19:54:39.767Z,12.39
2018-08-25T19:55:39.722Z,12.33
2018-08-25T19:56:39.718Z,12.39
2018-08-25T19:57:39.719Z,12.39
2018-08-25T19:58:39.715Z,12.34
2018-08-25T19:59:39.754Z,12.37
2018-08-25T20:00:39.712Z,12.41
2018-08-25T20:01:40.385Z,12.39
2018-08-25T20:02:39.715Z,12.37
2018-08-25T20:03:41.379Z,12.42
2018-08-25T20:04:39.736Z,12.44
2018-08-25T20:05:39.839Z,12.39
2018-08-25T20:06:39.700Z,12.33
2018-08-25T20:07:41.431Z,12.34
2018-08-25T20:08:40.446Z,12.31
2018-08-25T20:09:39.733Z,12.27
2018-08-25T20:10:39.702Z,12.29
2018-08-25T20:11:39.696Z,12.29
2018-08-25T20:12:39.691Z,12.26
2018-08-25T20:13:39.745Z,12.19
2018-08-25T20:14:40.047Z,12.23
2018-08-25T20:15:39.834Z,12.21
2018-08-25T20:16:39.687Z,12.26
2018-08-25T20:17:39.684Z,12.26
2018-08-25T20:18:39.686Z,12.29
2018-08-25T20:19:40.549Z,12.41
2018-08-25T20:20:40.568Z,12.41
2018-08-25T20:21:39.678Z,12.42
2018-08-25T20:22:39.678Z,12.37
2018-08-25T20:23:39.681Z,12.46
2018-08-25T20:24:39.714Z,12.44
2018-08-25T20:25:39.680Z,12.54
2018-08-25T20:26:39.672Z,12.52
2018-08-25T20:27:39.667Z,12.64
2018-08-25T20:28:39.664Z,12.67
2018-08-25T20:29:39.700Z,12.60
2018-08-25T20:30:39.718Z,12.59
2018-08-25T20:31:39.659Z,12.59
2018-08-25T20:32:39.664Z,12.63
2018-08-25T20:33:39.663Z,12.63
2018-08-25T20:34:39.687Z,12.66
2018-08-25T20:35:39.747Z,12.62
2018-08-25T20:36:39.655Z,12.60
2018-08-25T20:37:39.658Z,12.59
2018-08-25T20:38:39.652Z,12.52
2018-08-25T20:39:39.655Z,12.57
2018-08-25T20:40:39.679Z,12.49
2018-08-25T20:41:39.647Z,12.57
2018-08-25T20:42:39.651Z,12.56
2018-08-25T20:43:39.645Z,12.48
2018-08-25T20:44:39.642Z,12.48
2018-08-25T20:45:39.823Z,12.48
2018-08-25T20:46:39.641Z,12.48
2018-08-25T20:47:39.804Z,12.48
2018-08-25T20:48:39.640Z,12.52
2018-08-25T20:49:39.639Z,12.46
2018-08-25T20:50:39.669Z,12.42
2018-08-25T20:51:39.630Z,12.51
2018-08-25T20:52:39.628Z,12.52
2018-08-25T20:53:39.629Z,12.46
2018-08-25T20:54:39.632Z,12.37
2018-08-25T20:55:39.659Z,12.34
2018-08-25T20:56:39.624Z,12.27
2018-08-25T20:57:39.623Z,12.23
2018-08-25T20:58:39.625Z,12.29
2018-08-25T20:59:39.628Z,12.26
2018-08-25T21:00:39.724Z,12.29
2018-08-25T21:01:39.622Z,12.29
2018-08-25T21:02:39.616Z,12.24
2018-08-25T21:03:39.614Z,12.08
2018-08-25T21:04:39.618Z,12.19
2018-08-25T21:05:39.647Z,12.13
2018-08-25T21:06:39.686Z,12.01
2018-08-25T21:07:39.735Z,11.87
2018-08-25T21:08:39.616Z,11.97
2018-08-25T21:09:39.600Z,11.90
2018-08-25T21:10:39.639Z,11.78
2018-08-25T21:11:39.638Z,11.72
2018-08-25T21:12:39.599Z,11.82
2018-08-25T21:13:39.597Z,11.77
2018-08-25T21:14:39.597Z,11.83
2018-08-25T21:15:39.598Z,11.59
2018-08-25T21:16:39.628Z,11.59
2018-08-25T21:17:39.593Z,11.54
2018-08-25T21:18:39.589Z,11.46
2018-08-25T21:19:39.590Z,11.34
2018-08-25T21:20:39.622Z,11.29
2018-08-25T21:21:39.582Z,11.29
2018-08-25T21:22:39.584Z,11.24
2018-08-25T21:23:39.587Z,11.25
2018-08-25T21:24:39.579Z,11.27
2018-08-25T21:25:39.611Z,11.19
2018-08-25T21:26:39.571Z,11.13
2018-08-25T21:27:39.575Z,11.10
2018-08-25T21:28:39.570Z,11.10
2018-08-25T21:29:39.574Z,11.06
2018-08-25T21:30:39.598Z,10.99
2018-08-25T21:31:39.564Z,11.02
2018-08-25T21:32:39.560Z,10.88
2018-08-25T21:33:39.563Z,11.01
2018-08-25T21:34:39.558Z,10.86
2018-08-25T21:35:39.599Z,10.81
2018-08-25T21:36:39.593Z,10.78
2018-08-25T21:37:39.556Z,10.84
2018-08-25T21:38:39.550Z,10.86
2018-08-25T21:39:39.602Z,10.92
2018-08-25T21:40:39.547Z,11.02
2018-08-25T21:41:39.578Z,11.11
2018-08-25T21:42:39.543Z,11.16
2018-08-25T21:43:39.541Z,11.28
2018-08-25T21:44:39.544Z,11.29
2018-08-25T21:45:39.536Z,11.21
2018-08-25T21:46:39.581Z,11.21
2018-08-25T21:47:39.536Z,11.24
2018-08-25T21:48:39.532Z,11.28
2018-08-25T21:49:39.527Z,11.21
2018-08-25T21:50:39.533Z,11.28
2018-08-25T21:51:39.564Z,11.29
2018-08-25T21:52:39.518Z,11.35
2018-08-25T21:53:39.523Z,11.28
2018-08-25T21:54:39.518Z,11.35
2018-08-25T21:55:39.553Z,11.36
2018-08-25T21:56:39.513Z,11.32
2018-08-25T21:57:39.550Z,11.38
2018-08-25T21:58:39.512Z,11.29
2018-08-25T21:59:39.513Z,11.32
2018-08-25T22:00:39.506Z,11.31
2018-08-25T22:01:39.538Z,11.27
2018-08-25T22:02:39.503Z,11.25
2018-08-25T22:03:39.506Z,11.34
2018-08-25T22:04:39.496Z,11.43
2018-08-25T22:05:39.495Z,11.36
2018-08-25T22:06:39.534Z,11.29
2018-08-25T22:07:39.490Z,11.25
2018-08-25T22:08:39.495Z,11.21
2018-08-25T22:09:39.491Z,11.19
2018-08-25T22:10:39.487Z,11.19
2018-08-25T22:11:39.519Z,11.20
2018-08-25T22:12:39.479Z,11.25
2018-08-25T22:13:39.479Z,11.27
2018-08-25T22:14:39.476Z,11.24
2018-08-25T22:15:39.483Z,11.17
2018-08-25T22:16:39.510Z,11.07
2018-08-25T22:17:39.474Z,11.10
2018-08-25T22:18:39.468Z,10.95
2018-08-25T22:19:39.465Z,10.91
2018-08-25T22:20:39.461Z,10.95
2018-08-25T22:21:39.504Z,10.84
2018-08-25T22:22:39.458Z,10.86
2018-08-25T22:23:39.465Z,10.91
2018-08-25T22:24:39.458Z,10.74
2018-08-25T22:25:39.453Z,10.68
2018-08-25T22:26:39.488Z,10.76
2018-08-25T22:27:39.509Z,10.76
2018-08-25T22:28:39.445Z,10.84
2018-08-25T22:29:39.441Z,10.88
2018-08-25T22:30:39.443Z,10.80
2018-08-25T22:31:39.442Z,10.83
2018-08-25T22:32:39.475Z,10.83
2018-08-25T22:33:39.437Z,10.88
2018-08-25T22:34:39.435Z,10.88
2018-08-25T22:35:39.434Z,10.89
2018-08-25T22:36:39.470Z,10.92
2018-08-25T22:37:39.430Z,10.91
2018-08-25T22:38:39.426Z,10.92
2018-08-25T22:39:39.426Z,11.02
2018-08-25T22:40:39.420Z,11.10
2018-08-25T22:41:39.528Z,11.10
2018-08-25T22:42:39.414Z,11.11
2018-08-25T22:43:39.410Z,11.16
2018-08-25T22:44:39.424Z,11.11
2018-08-25T22:45:39.409Z,11.11
2018-08-25T22:46:39.444Z,11.17
2018-08-25T22:47:39.419Z,11.27
2018-08-25T22:48:39.401Z,11.21
2018-08-25T22:49:39.419Z,11.24
2018-08-25T22:50:39.396Z,11.24
2018-08-25T22:51:39.431Z,11.27
2018-08-25T22:52:39.394Z,11.19
2018-08-25T22:53:39.398Z,11.21
2018-08-25T22:54:39.388Z,11.16
2018-08-25T22:55:39.392Z,11.11
2018-08-25T22:56:39.418Z,11.11
2018-08-25T22:57:39.387Z,11.20
2018-08-25T22:58:39.385Z,11.14
2018-08-25T22:59:39.386Z,11.11
2018-08-25T23:00:39.382Z,11.16
2018-08-25T23:01:39.409Z,11.17
2018-08-25T23:02:39.377Z,11.11
2018-08-25T23:03:39.369Z,11.10
2018-08-25T23:04:39.371Z,11.07
2018-08-25T23:05:39.366Z,11.10
2018-08-25T23:06:39.404Z,11.07
2018-08-25T23:07:39.361Z,11.07
2018-08-25T23:08:39.359Z,11.02
2018-08-25T23:09:39.360Z,10.92
2018-08-25T23:10:39.354Z,11.03
2018-08-25T23:11:39.392Z,10.99
2018-08-25T23:12:39.349Z,10.83
2018-08-25T23:13:39.351Z,10.86
2018-08-25T23:14:39.346Z,10.83
2018-08-25T23:15:39.364Z,10.88
2018-08-25T23:16:39.377Z,10.91
2018-08-25T23:17:39.339Z,10.89
2018-08-25T23:18:39.337Z,10.92
2018-08-25T23:19:39.335Z,10.98
2018-08-25T23:20:39.330Z,11.02
2018-08-25T23:21:39.367Z,10.88
2018-08-25T23:22:39.336Z,10.92
2018-08-25T23:23:39.326Z,10.84
2018-08-25T23:24:39.325Z,10.83
2018-08-25T23:25:39.326Z,10.76
2018-08-25T23:26:39.358Z,10.66
2018-08-25T23:27:39.398Z,10.60
2018-08-25T23:28:39.315Z,10.66
2018-08-25T23:29:39.308Z,10.60
2018-08-25T23:30:39.316Z,10.59
2018-08-25T23:31:39.343Z,10.51
2018-08-25T23:32:39.302Z,10.53
2018-08-25T23:33:39.308Z,10.60
2018-08-25T23:34:39.297Z,10.52
2018-08-25T23:35:39.297Z,10.51
2018-08-25T23:36:39.329Z,10.53
2018-08-25T23:37:39.295Z,10.42
2018-08-25T23:38:39.289Z,10.36
2018-08-25T23:39:39.290Z,10.44
2018-08-25T23:40:39.286Z,10.37
2018-08-25T23:41:39.337Z,10.28
2018-08-25T23:42:39.283Z,10.32
2018-08-25T23:43:39.278Z,10.24
2018-08-25T23:44:39.280Z,10.30
2018-08-25T23:45:39.276Z,10.19
2018-08-25T23:46:39.316Z,10.22
2018-08-25T23:47:39.304Z,10.26
2018-08-25T23:48:39.266Z,10.18
2018-08-25T23:49:39.266Z,10.17
2018-08-25T23:50:39.285Z,10.19
2018-08-25T23:51:39.260Z,10.24
2018-08-25T23:52:39.294Z,10.07
2018-08-25T23:53:39.253Z,10.06
2018-08-25T23:54:39.256Z,10.04
2018-08-25T23:55:39.256Z,10.06
2018-08-25T23:56:39.281Z,10.06
2018-08-25T23:57:39.281Z,10.03
2018-08-25T23:58:39.244Z,9.97
2018-08-25T23:59:39.239Z,9.97
